KAQP

Details ICAO KAQP
Name APPLETON MUNI
Region United States
Timezone America/Chicago (UTC-5.0)
Plans Departing 4
Arriving 4
Stats Elevation 1,020 ft / 311 m (AMSL)
Location 45.227414° -96.004529°
Runways 2
Magnetic Variation 2.365° E
Sunrise 2018-05-23 10:47:36 UTC / 2018-05-23 05:47:36 Local
Sunset 2018-05-24 01:56:50 UTC / 2018-05-23 20:56:50 Local
Advertisement - Login to hide

Runways

ID Width Length Bearing (true) Bearing (mag) Surface Threshold Offset Overrun Length
04 157 ft / 48 m 2,722 ft / 830 m 43.94° 41.57° Grass 0 ft / 0 m 0 ft / 0 m
13 75 ft / 23 m 3,498 ft / 1,066 m 135.52° 133.15° Asphalt 1,021 ft / 311 m 0 ft / 0 m
22 157 ft / 48 m 2,722 ft / 830 m 223.94° 221.57° Grass 0 ft / 0 m 0 ft / 0 m
31 75 ft / 23 m 3,498 ft / 1,066 m 315.52° 313.15° Asphalt 0 ft / 0 m 0 ft / 0 m

Map

Weather


0- 5 10 15 20 25 30 35+ Temperature / ° C

Clouds and Precipitation
Forecast for 2018-05-24 00:00 UTC. Updated 3 hours ago

Ground ~20,000 ft ~40,000 ft Winds

METAR

KAQP 240230Z AUTO 11011G14KT 10SM SCT120 23/17 A2996 RMK AO2 LTG DSNT N

TAF

Not found

Frequencies

Unicom 122.90 MHz CTAF
Warning: Do not use this data for real-world aviation or navigation. No guarantee of current accuracy is given.